Wednesday, April 25, 2018, 5:00 AM EDT
Back to Local

KMPV, Knapp State Airport

Location: Barre, VT, United States Lat: 44.2
Local Time: 5:00 AM EDT ( 9:00 GMT) Lon: -72.567
Time Zone: US/Eastern Elev: 1164 ft

Show me the last for .
Show Decoded

2018-04-25 03:51 METAR KMPV 250751Z AUTO 16008KT 10SM CLR 10/02 A3013 RMK AO2 SLP205 T01000017 =
2018-04-25 02:51 METAR KMPV 250651Z AUTO 17011KT 10SM CLR 11/01 A3014 RMK AO2 SLP207 T01060006 =
2018-04-25 01:51 METAR KMPV 250551Z AUTO 18007KT 10SM CLR 11/M01 A3015 RMK AO2 SLP210 T01111006
                 10150 20111 58007 =
2018-04-25 00:51 METAR KMPV 250451Z AUTO 18006KT 10SM CLR 12/M01 A3016 RMK AO2 SLP214 T01171011
                 402111011 =
2018-04-24 23:51 METAR KMPV 250351Z AUTO 21003KT 10SM CLR 13/M02 A3017 RMK AO2 SLP216 T01281022 =
2018-04-24 22:51 METAR KMPV 250251Z AUTO 17009KT 10SM CLR 13/M02 A3017 RMK AO2 SLP218 T01331022
                 50002 =
2018-04-24 21:51 METAR KMPV 250151Z AUTO 19008KT 10SM CLR 14/M02 A3017 RMK AO2 SLP220 T01391022 =
2018-04-24 20:51 METAR KMPV 250051Z AUTO 18009KT 10SM CLR 13/M02 A3017 RMK AO2 SLP219 T01281022 =
2018-04-24 19:51 METAR KMPV 242351Z AUTO 00000KT 10SM CLR 13/M02 A3016 RMK AO2 SLP220 T01331017
                 10211 20133 56011 =
2018-04-24 18:51 METAR KMPV 242251Z AUTO 00000KT 10SM CLR 17/M04 A3017 RMK AO2 SLP223 T01721039 =
2018-04-24 17:51 METAR KMPV 242151Z AUTO 21003KT 10SM CLR 18/M05 A3019 RMK AO2 SLP229 T01831050 =
2018-04-24 16:51 METAR KMPV 242051Z AUTO 21007KT 10SM CLR 19/M06 A3020 RMK AO2 SLP232 T01891056
                 56014 =
2018-04-24 15:51 METAR KMPV 241951Z AUTO 19009KT 10SM CLR 19/M05 A3021 RMK AO2 SLP236 T01941050 =
2018-04-24 14:51 METAR KMPV 241851Z AUTO 17010G18KT 10SM CLR 20/M06 A3022 RMK AO2 SLP240
                 T02001056 =
2018-04-24 13:51 METAR KMPV 241751Z AUTO 20008G14KT 10SM CLR 19/M07 A3024 RMK AO2 SLP245
                 T01941067 10200 20067 57026 $ =
2018-04-24 12:51 METAR KMPV 241651Z AUTO 22007KT 10SM CLR 19/M06 A3026 RMK AO2 SLP253 T01891056 =
2018-04-24 11:51 METAR KMPV 241551Z AUTO 24008G15KT 200V330 10SM CLR 18/M06 A3030 RMK AO2 SLP266
                 T01781061 =
2018-04-24 10:51 METAR KMPV 241451Z AUTO 21008KT 10SM CLR 17/M02 A3032 RMK AO2 SLP273 T01671017
                 58010 =
2018-04-24 09:51 METAR KMPV 241351Z AUTO 18006G16KT 10SM CLR 15/M02 A3034 RMK AO2 SLP279
                 T01501022 =
2018-04-24 08:51 METAR KMPV 241251Z AUTO 17013KT 10SM CLR 12/M02 A3034 RMK AO2 SLP279 T01221022 =
2018-04-24 07:51 METAR KMPV 241151Z AUTO 00000KT 10SM CLR 07/00 A3035 RMK AO2 SLP286 T00670000
                 10078 21011 51004 =
2018-04-24 06:51 METAR KMPV 241051Z AUTO 19003KT 10SM CLR 03/M04 A3035 RMK AO2 SLP283 T00281039 =
2018-04-24 05:51 METAR KMPV 240951Z AUTO 00000KT 10SM CLR M01/M04 A3035 RMK AO2 SLP285 T10111044
                 =

Support USWX by starting your Amazon purchase here.